Ludlow, Iowa
Current Conditions -  °F | °C
As of 12:35 AM on Wednesday 28 Jan 2015 (Local Time) from KDEH Reporting Station
Overcast Overcast  
Wind Chill: 15°   Ceiling: 900
Heat Index: 25°   Visibility: 10mi
Dew Point: 23°   Wind: 10mph
Humidity: 93%   Direction: 150°SSE
Pressure: 30.17"   Gusts: NA
Location:  43.256°N, 91.4868°W
Report Text: KDEH 280635Z AUTO 15009KT 10SM OVC009 M04/M05 A3017 RMK AO2
Loading
Personal Weather Stations






























Interactive Weather Map New forecast layout! Learn more

10-Day Weather Forecast

Advertisements
Track Severe Weather on mobile